createdAt,value
2019-05-22T00:02:17.977Z,22.73
2019-05-22T00:04:56.881Z,23.83
2019-05-22T00:07:28.476Z,23.50
2019-05-22T00:09:58.772Z,23.30
2019-05-22T00:12:28.568Z,23.57
2019-05-22T00:14:58.832Z,26.83
2019-05-22T00:17:32.549Z,25.37
2019-05-22T00:20:05.818Z,22.07
2019-05-22T00:22:37.116Z,27.37
2019-05-22T00:25:11.940Z,22.70
2019-05-22T00:27:42.875Z,21.63
2019-05-22T00:30:16.433Z,24.33
2019-05-22T00:32:47.355Z,23.73
2019-05-22T00:35:19.137Z,24.67
2019-05-22T00:37:49.431Z,28.00
2019-05-22T00:40:20.572Z,27.63
2019-05-22T00:43:03.509Z,31.77
2019-05-22T00:45:25.349Z,36.13
2019-05-22T00:47:55.731Z,27.80
2019-05-22T00:50:30.381Z,31.90
2019-05-22T00:53:02.692Z,27.90
2019-05-22T00:55:48.115Z,31.70
2019-05-22T00:58:20.233Z,28.43
2019-05-22T01:00:52.441Z,30.57
2019-05-22T01:03:24.498Z,30.93
2019-05-22T01:05:54.924Z,32.60
2019-05-22T01:08:25.968Z,34.20
2019-05-22T01:10:57.078Z,31.43
2019-05-22T01:13:30.835Z,33.90
2019-05-22T01:16:01.936Z,28.97
2019-05-22T01:18:32.926Z,26.10
2019-05-22T01:21:04.392Z,29.93
2019-05-22T01:23:36.877Z,32.27
2019-05-22T01:26:08.242Z,27.87
2019-05-22T01:28:38.836Z,27.57
2019-05-22T01:31:24.156Z,27.20
2019-05-22T01:34:13.185Z,28.77
2019-05-22T01:36:45.504Z,34.03
2019-05-22T01:39:26.014Z,30.43
2019-05-22T01:41:58.537Z,29.57
2019-05-22T01:44:30.258Z,33.57
2019-05-22T01:47:04.476Z,32.30
2019-05-22T01:49:37.979Z,32.30
2019-05-22T01:52:09.544Z,32.67
2019-05-22T01:54:39.007Z,34.37
2019-05-22T01:57:10.692Z,32.93
2019-05-22T01:59:42.068Z,28.73
2019-05-22T02:02:13.868Z,28.17
2019-05-22T02:04:43.432Z,28.37
2019-05-22T02:07:12.925Z,33.57
2019-05-22T02:09:44.294Z,27.00
2019-05-22T02:12:38.796Z,32.03
2019-05-22T02:15:09.852Z,27.23
2019-05-22T02:17:39.581Z,31.13
2019-05-22T02:20:11.258Z,28.23
2019-05-22T02:22:42.380Z,26.50
2019-05-22T02:25:13.689Z,25.03
2019-05-22T02:27:48.532Z,26.60
2019-05-22T02:30:20.959Z,26.70
2019-05-22T02:32:50.712Z,26.77
2019-05-22T02:35:21.714Z,27.27
2019-05-22T02:37:52.033Z,27.83
2019-05-22T02:40:27.430Z,30.27
2019-05-22T02:42:58.529Z,27.10
2019-05-22T02:45:29.050Z,24.13
2019-05-22T02:48:00.692Z,31.00
2019-05-22T02:50:30.617Z,27.33
2019-05-22T02:53:01.991Z,31.83
2019-05-22T02:55:33.381Z,29.50
2019-05-22T02:58:03.793Z,28.87
2019-05-22T03:00:41.789Z,25.10
2019-05-22T03:03:12.701Z,32.93
2019-05-22T03:05:43.093Z,29.00
2019-05-22T03:08:12.972Z,34.83
2019-05-22T03:10:44.237Z,37.07
2019-05-22T03:13:14.437Z,32.50
2019-05-22T03:15:44.914Z,37.00
2019-05-22T03:18:15.025Z,35.63
2019-05-22T03:20:44.680Z,36.83
2019-05-22T03:23:34.442Z,40.87
2019-05-22T03:26:04.270Z,34.30
2019-05-22T03:28:34.891Z,33.23
2019-05-22T03:31:05.200Z,39.40
2019-05-22T03:33:35.741Z,36.73
2019-05-22T03:36:11.385Z,37.30
2019-05-22T03:38:41.945Z,34.73
2019-05-22T03:41:12.733Z,33.57
2019-05-22T03:43:48.308Z,36.60
2019-05-22T03:46:31.677Z,32.77
2019-05-22T03:49:01.561Z,35.17
2019-05-22T03:51:31.348Z,31.50
2019-05-22T03:54:02.055Z,32.57
2019-05-22T03:56:34.775Z,33.60
2019-05-22T03:59:05.631Z,36.43
2019-05-22T04:01:35.389Z,31.33
2019-05-22T04:04:07.377Z,30.50
2019-05-22T04:06:38.773Z,32.70
2019-05-22T04:09:20.317Z,29.67
2019-05-22T04:11:50.567Z,34.30
2019-05-22T04:14:21.929Z,33.80
2019-05-22T04:16:53.248Z,32.43
2019-05-22T04:19:23.471Z,37.57
2019-05-22T04:21:52.935Z,30.87
2019-05-22T04:24:22.570Z,31.80
2019-05-22T04:26:52.076Z,29.07
2019-05-22T04:29:21.530Z,25.23
2019-05-22T04:32:00.343Z,27.93
2019-05-22T04:34:31.437Z,29.20
2019-05-22T04:37:02.109Z,29.90
2019-05-22T04:39:33.022Z,30.00
2019-05-22T04:42:04.097Z,33.37
2019-05-22T04:44:34.173Z,31.10
2019-05-22T04:47:04.478Z,32.13
2019-05-22T04:49:34.162Z,26.90
2019-05-22T04:52:04.262Z,25.43
2019-05-22T04:54:33.732Z,26.00
2019-05-22T04:57:04.242Z,30.40
2019-05-22T04:59:34.804Z,25.23
2019-05-22T05:02:04.681Z,31.07
2019-05-22T05:04:34.549Z,28.23
2019-05-22T05:07:04.659Z,26.60
2019-05-22T05:09:34.229Z,27.87
2019-05-22T05:12:05.260Z,30.00
2019-05-22T05:14:34.895Z,24.00
2019-05-22T05:17:04.843Z,27.03
2019-05-22T05:19:34.435Z,26.03
2019-05-22T05:22:03.988Z,28.37
2019-05-22T05:24:33.692Z,25.20
2019-05-22T05:27:05.352Z,25.80
2019-05-22T05:29:35.119Z,25.10
2019-05-22T05:32:06.004Z,23.77
2019-05-22T05:34:49.161Z,26.37
2019-05-22T05:37:20.664Z,27.93
2019-05-22T05:40:41.362Z,26.00
2019-05-22T05:43:12.680Z,23.03
2019-05-22T05:45:43.968Z,29.33
2019-05-22T05:48:17.142Z,24.73
2019-05-22T05:51:33.832Z,21.93
2019-05-22T05:54:08.668Z,23.77
2019-05-22T05:56:40.872Z,23.60
2019-05-22T05:59:12.373Z,21.93
2019-05-22T06:01:45.516Z,26.97
2019-05-22T06:04:17.340Z,25.13
2019-05-22T06:07:22.134Z,24.33
2019-05-22T06:10:23.844Z,21.60
2019-05-22T06:12:53.424Z,23.47
2019-05-22T06:15:25.490Z,23.27
2019-05-22T06:18:31.708Z,23.57
2019-05-22T06:21:04.356Z,21.63
2019-05-22T06:24:10.446Z,21.57
2019-05-22T06:27:18.896Z,22.70
2019-05-22T06:30:01.676Z,24.17
2019-05-22T06:33:14.211Z,18.60
2019-05-22T06:35:46.449Z,21.47
2019-05-22T06:38:43.902Z,21.80
2019-05-22T06:41:13.716Z,19.50
2019-05-22T06:44:24.984Z,20.50
2019-05-22T06:46:54.478Z,21.70
2019-05-22T06:49:44.514Z,19.87
2019-05-22T06:52:15.136Z,17.20
2019-05-22T06:54:44.849Z,22.27
2019-05-22T06:57:15.127Z,18.47
2019-05-22T06:59:46.472Z,17.10
2019-05-22T07:02:19.394Z,20.60
2019-05-22T07:04:49.800Z,16.47
2019-05-22T07:07:20.001Z,18.57
2019-05-22T07:09:49.829Z,16.60
2019-05-22T07:12:20.651Z,18.73
2019-05-22T07:15:23.111Z,16.00
2019-05-22T07:17:58.810Z,18.03
2019-05-22T07:20:30.947Z,18.37
2019-05-22T07:23:01.957Z,17.50
2019-05-22T07:25:33.122Z,17.97
2019-05-22T07:28:03.417Z,14.60
2019-05-22T07:30:33.852Z,16.53
2019-05-22T07:33:03.883Z,15.73
2019-05-22T07:35:46.044Z,16.33
2019-05-22T07:38:04.820Z,20.00
2019-05-22T07:40:35.656Z,14.97
2019-05-22T07:43:05.888Z,18.80
2019-05-22T07:45:37.326Z,20.33
2019-05-22T07:48:08.273Z,17.73
2019-05-22T07:50:42.188Z,17.23
2019-05-22T07:53:11.634Z,18.20
2019-05-22T07:55:41.661Z,20.13
2019-05-22T07:58:16.143Z,17.00
2019-05-22T08:00:53.296Z,16.50
2019-05-22T08:03:23.552Z,19.23
2019-05-22T08:05:56.223Z,15.00
2019-05-22T08:08:26.666Z,16.40
2019-05-22T08:10:58.144Z,19.33
2019-05-22T08:13:28.957Z,16.30
2019-05-22T08:15:59.092Z,18.07
2019-05-22T08:18:32.576Z,16.67
2019-05-22T08:21:02.298Z,17.77
2019-05-22T08:23:32.073Z,14.93
2019-05-22T08:26:01.643Z,16.60
2019-05-22T08:28:33.194Z,15.60
2019-05-22T08:31:04.278Z,15.63
2019-05-22T08:33:35.200Z,15.77
2019-05-22T08:36:05.001Z,11.83
2019-05-22T08:38:34.896Z,11.60
2019-05-22T08:41:07.145Z,11.10
2019-05-22T08:44:03.353Z,12.77
2019-05-22T08:46:10.148Z,13.30
2019-05-22T08:48:47.391Z,11.40
2019-05-22T08:51:12.437Z,14.67
2019-05-22T08:53:47.243Z,12.97
2019-05-22T08:56:14.612Z,17.90
2019-05-22T08:58:46.295Z,11.73
2019-05-22T09:01:16.262Z,12.90
2019-05-22T09:03:46.620Z,13.43
2019-05-22T09:06:16.270Z,14.83
2019-05-22T09:08:46.132Z,12.53
2019-05-22T09:11:15.821Z,13.77
2019-05-22T09:13:45.466Z,16.33
2019-05-22T09:16:15.768Z,13.23
2019-05-22T09:18:45.265Z,16.57
2019-05-22T09:21:15.528Z,12.83
2019-05-22T09:23:45.716Z,14.13
2019-05-22T09:26:15.288Z,14.27
2019-05-22T09:28:44.737Z,14.67
2019-05-22T09:31:14.198Z,12.23
2019-05-22T09:33:43.928Z,14.60
2019-05-22T09:36:13.957Z,14.63
2019-05-22T09:38:43.425Z,12.97
2019-05-22T09:41:12.901Z,16.83
2019-05-22T09:43:42.580Z,15.60
2019-05-22T09:46:12.149Z,15.27
2019-05-22T09:48:41.929Z,16.90
2019-05-22T09:51:11.600Z,14.87
2019-05-22T09:53:41.653Z,14.27
2019-05-22T09:56:11.640Z,13.87
2019-05-22T09:58:41.296Z,16.53
2019-05-22T10:01:12.111Z,16.30
2019-05-22T10:03:41.743Z,17.97
2019-05-22T10:06:11.668Z,17.03
2019-05-22T10:08:41.181Z,14.20
2019-05-22T10:11:10.696Z,17.13
2019-05-22T10:13:40.978Z,14.10
2019-05-22T10:16:10.431Z,18.93
2019-05-22T10:18:40.200Z,14.70
2019-05-22T10:21:09.660Z,17.40
2019-05-22T10:23:39.253Z,15.70
2019-05-22T10:26:09.501Z,14.53
2019-05-22T10:28:39.702Z,13.90
2019-05-22T10:31:10.187Z,14.47
2019-05-22T10:33:40.441Z,16.23
2019-05-22T10:36:10.050Z,16.33
2019-05-22T10:38:39.793Z,14.53
2019-05-22T10:41:10.038Z,15.40
2019-05-22T10:43:39.684Z,17.70
2019-05-22T10:46:09.618Z,17.43
2019-05-22T10:48:40.356Z,13.93
2019-05-22T10:51:10.231Z,16.10
2019-05-22T10:53:39.958Z,13.80
2019-05-22T10:56:09.967Z,15.90
2019-05-22T10:58:39.872Z,14.93
2019-05-22T11:01:10.365Z,15.23
2019-05-22T11:03:40.228Z,13.43
2019-05-22T11:06:09.808Z,17.77
2019-05-22T11:08:40.418Z,13.80
2019-05-22T11:11:10.205Z,14.87
2019-05-22T11:13:40.394Z,10.93
2019-05-22T11:16:10.743Z,12.93
2019-05-22T11:18:40.887Z,12.20
2019-05-22T11:21:10.498Z,10.53
2019-05-22T11:23:51.161Z,10.00
2019-05-22T11:26:12.225Z,10.70
2019-05-22T11:28:42.215Z,9.57
2019-05-22T11:31:11.811Z,8.73
2019-05-22T11:33:41.320Z,8.17
2019-05-22T11:36:11.589Z,9.07
2019-05-22T11:38:41.041Z,7.60
2019-05-22T11:41:11.341Z,8.27
2019-05-22T11:43:41.048Z,8.63
2019-05-22T11:46:10.529Z,8.43
2019-05-22T11:48:40.309Z,9.20
2019-05-22T11:51:10.564Z,7.87
2019-05-22T11:53:40.053Z,8.97
2019-05-22T11:56:10.118Z,10.07
2019-05-22T11:58:39.677Z,8.20
2019-05-22T12:01:09.399Z,8.70
2019-05-22T12:03:39.537Z,9.30
2019-05-22T12:06:09.397Z,8.37
2019-05-22T12:08:38.893Z,10.30
2019-05-22T12:11:10.820Z,8.43
2019-05-22T12:13:55.219Z,7.27
2019-05-22T12:16:24.721Z,7.53
2019-05-22T12:18:58.302Z,8.23
2019-05-22T12:21:26.172Z,8.60
2019-05-22T12:23:55.779Z,6.70
2019-05-22T12:26:26.285Z,5.77
2019-05-22T12:28:55.844Z,6.43
2019-05-22T12:31:25.557Z,5.90
2019-05-22T12:33:55.057Z,5.20
2019-05-22T12:36:24.940Z,6.00
2019-05-22T12:38:55.813Z,6.47
2019-05-22T12:41:26.127Z,6.67
2019-05-22T12:43:55.838Z,6.83
2019-05-22T12:46:25.790Z,8.13
2019-05-22T12:48:55.399Z,6.27
2019-05-22T12:51:25.454Z,7.17
2019-05-22T12:53:54.986Z,6.03
2019-05-22T12:56:24.470Z,6.70
2019-05-22T12:58:55.714Z,6.73
2019-05-22T13:01:26.313Z,6.57
2019-05-22T13:03:59.216Z,5.93
2019-05-22T13:06:29.304Z,7.00
2019-05-22T13:08:59.985Z,7.70
2019-05-22T13:11:29.436Z,8.37
2019-05-22T13:13:59.324Z,6.50
2019-05-22T13:16:30.720Z,6.37
2019-05-22T13:19:00.317Z,6.23
2019-05-22T13:21:33.915Z,6.40
2019-05-22T13:24:11.489Z,7.40
2019-05-22T13:26:41.377Z,6.97
2019-05-22T13:29:13.749Z,7.00
2019-05-22T13:31:44.329Z,6.73
2019-05-22T13:34:16.715Z,6.70
2019-05-22T13:36:47.446Z,6.27
2019-05-22T13:39:17.678Z,6.80
2019-05-22T13:41:48.181Z,6.33
2019-05-22T13:44:18.681Z,7.20
2019-05-22T13:46:48.272Z,5.37
2019-05-22T13:49:17.740Z,5.47
2019-05-22T13:51:47.528Z,5.80
2019-05-22T13:54:17.435Z,5.83
2019-05-22T13:56:47.514Z,5.30
2019-05-22T13:59:17.612Z,6.37
2019-05-22T14:01:47.669Z,6.00
2019-05-22T14:04:17.408Z,10.17
2019-05-22T14:06:46.919Z,15.13
2019-05-22T14:09:21.373Z,10.60
2019-05-22T14:11:50.523Z,12.70
2019-05-22T14:14:20.130Z,12.87
2019-05-22T14:16:49.682Z,41.27
2019-05-22T14:19:19.313Z,21.33
2019-05-22T14:21:51.718Z,37.43
2019-05-22T14:24:20.612Z,103.17
2019-05-22T14:26:50.383Z,55.77
2019-05-22T14:29:20.177Z,32.10
2019-05-22T14:31:50.105Z,19.63
2019-05-22T14:34:20.204Z,6.17
2019-05-22T14:36:50.281Z,11.70
2019-05-22T14:39:21.152Z,9.67
2019-05-22T14:41:50.669Z,7.27
2019-05-22T14:44:21.187Z,37.13
2019-05-22T14:46:50.752Z,5.93
2019-05-22T14:49:21.003Z,6.03
2019-05-22T14:51:50.521Z,7.60
2019-05-22T14:54:20.301Z,4.17
2019-05-22T14:56:49.871Z,4.63
2019-05-22T14:59:19.696Z,3.77
2019-05-22T15:01:49.139Z,3.87
2019-05-22T15:04:18.837Z,9.47
2019-05-22T15:06:50.700Z,6.77
2019-05-22T15:09:20.385Z,4.97
2019-05-22T15:11:49.953Z,7.50
2019-05-22T15:14:19.507Z,4.13
2019-05-22T15:16:49.059Z,5.33
2019-05-22T15:19:19.173Z,16.53
2019-05-22T15:21:48.633Z,20.30
2019-05-22T15:24:18.444Z,24.17
2019-05-22T15:26:48.996Z,14.17
2019-05-22T15:29:19.689Z,4.00
2019-05-22T15:31:49.681Z,11.10
2019-05-22T15:34:19.933Z,4.13
2019-05-22T15:36:49.531Z,4.33
2019-05-22T15:39:23.517Z,4.63
2019-05-22T15:41:53.467Z,5.13
2019-05-22T15:44:25.173Z,11.90
2019-05-22T15:46:55.208Z,22.03
2019-05-22T15:49:26.009Z,18.53
2019-05-22T15:51:56.469Z,8.10
2019-05-22T15:54:29.349Z,4.73
2019-05-22T15:57:01.326Z,7.30
2019-05-22T15:59:32.714Z,16.60
2019-05-22T16:02:04.822Z,6.33
2019-05-22T16:04:35.288Z,5.47
2019-05-22T16:07:05.084Z,5.70
2019-05-22T16:09:35.854Z,5.43
2019-05-22T16:12:07.334Z,9.83
2019-05-22T16:14:38.046Z,12.60
2019-05-22T16:17:08.496Z,6.20
2019-05-22T16:19:39.179Z,5.40
2019-05-22T16:22:10.885Z,5.93
2019-05-22T16:24:41.378Z,10.17
2019-05-22T16:27:14.224Z,10.53
2019-05-22T16:29:44.896Z,6.07
2019-05-22T16:32:16.061Z,4.87
2019-05-22T16:34:45.552Z,5.03
2019-05-22T16:37:15.785Z,12.37
2019-05-22T16:39:45.753Z,40.20
2019-05-22T16:42:15.344Z,7.47
2019-05-22T16:44:44.807Z,16.47
2019-05-22T16:47:16.186Z,6.77
2019-05-22T16:49:46.470Z,5.13
2019-05-22T16:52:16.455Z,9.40
2019-05-22T16:54:47.217Z,25.60
2019-05-22T16:57:17.504Z,9.17
2019-05-22T16:59:47.274Z,5.33
2019-05-22T17:02:18.882Z,14.83
2019-05-22T17:04:48.761Z,4.77
2019-05-22T17:07:19.354Z,4.93
2019-05-22T17:09:51.189Z,5.77
2019-05-22T17:12:21.929Z,5.73
2019-05-22T17:14:53.720Z,12.80
2019-05-22T17:17:23.275Z,11.63
2019-05-22T17:19:53.160Z,8.30
2019-05-22T17:22:23.253Z,18.97
2019-05-22T17:24:52.672Z,5.47
2019-05-22T17:27:22.762Z,5.40
2019-05-22T17:29:52.726Z,6.57
2019-05-22T17:32:23.790Z,5.20
2019-05-22T17:34:53.699Z,5.90
2019-05-22T17:37:25.147Z,4.80
2019-05-22T17:39:54.604Z,4.93
2019-05-22T17:42:27.414Z,5.00
2019-05-22T17:44:57.765Z,5.20
2019-05-22T17:47:29.343Z,9.27
2019-05-22T17:50:01.863Z,4.67
2019-05-22T17:52:32.280Z,6.40
2019-05-22T17:55:02.014Z,10.43
2019-05-22T17:57:32.122Z,6.13
2019-05-22T18:00:03.381Z,6.40
2019-05-22T18:02:35.000Z,6.33
2019-05-22T18:05:06.783Z,7.93
2019-05-22T18:07:37.040Z,5.70
2019-05-22T18:10:07.230Z,6.77
2019-05-22T18:12:36.888Z,7.00
2019-05-22T18:15:07.060Z,6.50
2019-05-22T18:17:38.504Z,6.00
2019-05-22T18:20:09.772Z,5.63
2019-05-22T18:22:39.954Z,6.10
2019-05-22T18:25:10.355Z,6.60
2019-05-22T18:27:39.827Z,5.07
2019-05-22T18:30:10.028Z,7.63
2019-05-22T18:32:42.337Z,5.83
2019-05-22T18:35:14.711Z,6.77
2019-05-22T18:37:44.183Z,6.80
2019-05-22T18:40:15.109Z,6.27
2019-05-22T18:42:44.893Z,8.17
2019-05-22T18:45:16.112Z,6.20
2019-05-22T18:47:45.610Z,6.00
2019-05-22T18:50:16.271Z,6.23
2019-05-22T18:52:49.668Z,6.27
2019-05-22T18:55:19.604Z,6.07
2019-05-22T18:57:49.209Z,6.83
2019-05-22T19:00:21.594Z,6.03
2019-05-22T19:02:51.303Z,6.07
2019-05-22T19:05:23.981Z,6.27
2019-05-22T19:07:53.522Z,7.73
2019-05-22T19:10:23.809Z,6.13
2019-05-22T19:12:53.979Z,9.53
2019-05-22T19:15:24.386Z,7.67
2019-05-22T19:17:53.868Z,8.50
2019-05-22T19:20:23.683Z,7.33
2019-05-22T19:23:00.515Z,6.47
2019-05-22T19:25:24.468Z,5.90
2019-05-22T19:27:53.954Z,6.57
2019-05-22T19:30:24.058Z,7.53
2019-05-22T19:32:53.537Z,7.20
2019-05-22T19:35:23.018Z,8.30
2019-05-22T19:37:53.662Z,6.83
2019-05-22T19:40:23.671Z,7.43
2019-05-22T19:42:53.133Z,6.30
2019-05-22T19:45:22.917Z,8.63
2019-05-22T19:47:55.924Z,6.40
2019-05-22T19:50:26.869Z,6.63
2019-05-22T19:52:57.691Z,7.70
2019-05-22T19:55:29.995Z,7.53
2019-05-22T19:57:59.931Z,7.10
2019-05-22T20:00:30.455Z,7.50
2019-05-22T20:03:01.489Z,7.90
2019-05-22T20:05:31.559Z,6.63
2019-05-22T20:08:01.259Z,6.87
2019-05-22T20:10:31.028Z,6.90
2019-05-22T20:13:00.531Z,7.37
2019-05-22T20:15:30.727Z,7.40
2019-05-22T20:18:01.887Z,7.93
2019-05-22T20:20:31.794Z,7.93
2019-05-22T20:23:01.562Z,7.50
2019-05-22T20:25:31.556Z,7.93
2019-05-22T20:28:02.827Z,8.53
2019-05-22T20:30:32.871Z,7.63
2019-05-22T20:33:02.806Z,8.37
2019-05-22T20:35:33.131Z,9.70
2019-05-22T20:38:02.896Z,7.73
2019-05-22T20:40:33.318Z,8.43
2019-05-22T20:43:03.912Z,7.60
2019-05-22T20:45:33.546Z,8.83
2019-05-22T20:48:12.274Z,9.70
2019-05-22T20:50:41.981Z,7.27
2019-05-22T20:53:12.426Z,8.60
2019-05-22T20:55:42.594Z,7.40
2019-05-22T20:58:14.351Z,9.27
2019-05-22T21:00:45.557Z,7.67
2019-05-22T21:03:15.826Z,8.57
2019-05-22T21:05:46.377Z,8.03
2019-05-22T21:08:17.996Z,7.50
2019-05-22T21:10:48.879Z,9.40
2019-05-22T21:13:19.919Z,10.20
2019-05-22T21:15:52.084Z,7.43
2019-05-22T21:18:25.560Z,8.20
2019-05-22T21:20:55.721Z,9.43
2019-05-22T21:23:25.580Z,7.43
2019-05-22T21:25:55.383Z,7.53
2019-05-22T21:28:25.705Z,7.83
2019-05-22T21:30:55.700Z,8.23
2019-05-22T21:33:25.375Z,8.93
2019-05-22T21:35:56.498Z,7.23
2019-05-22T21:38:26.259Z,9.67
2019-05-22T21:41:15.005Z,13.17
2019-05-22T21:44:03.678Z,13.13
2019-05-22T21:50:01.910Z,11.23
2019-05-22T21:52:44.063Z,8.47
2019-05-22T21:55:14.477Z,9.17
2019-05-22T21:58:03.847Z,20.73
2019-05-22T22:01:11.870Z,10.30
2019-05-22T22:04:19.293Z,8.37
2019-05-22T22:07:07.998Z,9.57
2019-05-22T22:13:12.318Z,11.00
2019-05-22T22:18:56.761Z,19.93
2019-05-22T22:27:21.289Z,15.17
2019-05-22T22:30:15.252Z,14.50
2019-05-22T22:33:07.793Z,12.33
2019-05-22T22:35:56.294Z,18.97
2019-05-22T22:39:05.175Z,17.80
2019-05-22T22:42:14.404Z,13.70
2019-05-22T22:45:05.756Z,10.10
2019-05-22T22:47:54.531Z,33.33
2019-05-22T22:51:03.674Z,9.53
2019-05-22T22:56:48.247Z,10.97
2019-05-22T22:59:17.913Z,12.00
2019-05-22T23:02:08.061Z,13.03
2019-05-22T23:08:06.094Z,15.97
2019-05-22T23:10:54.771Z,9.70
2019-05-22T23:13:43.090Z,9.30
2019-05-22T23:22:07.877Z,11.17
2019-05-22T23:28:06.072Z,11.20
2019-05-22T23:34:05.663Z,9.37
2019-05-22T23:42:50.294Z,12.53
2019-05-22T23:48:14.429Z,18.57
2019-05-22T23:50:56.270Z,22.83
2019-05-22T23:53:37.632Z,10.30
2019-05-22T23:56:08.983Z,9.33
